»·PEaware :: N480ME KSFO-KVBG

N480ME :: KSFO-KVBG

FLIGHT INFORMATION

Flight Status: Arrived
Operator: Privately registered:
United States
More flights under this callsign
Pilot: Alan J. (5709)
Aircraft: MITSUBISHI MU-2 MARQUISE
(MU2)
More flights by this aircraft type
Origin: KSFO San Francisco Intl
United States
Destination: KVBG Vandenberg AFB
United States
More flights between these airports :: More routes between these airports
Route: +EUGEN1 SNS J88 CEANO
File this flight plan on PilotEdge
Remarks:
Altitude:
(Current/Filed)
25,000ft
Speed:
(Current/Filed)
305kts
Departed: 31-Jul-15 12:08 PM
Arrived: 31-Jul-15 01:18 PM
Distance/Time
Traveled:
194nm/1:10
Distance/Time
To Go:
Arrived

Flight Plot

Page will automatically refresh every two minutes.

Flight plan parsing failed; only flown route is shown


Map Options




Map Legend


Flown Route
Filed Route
Departure Airport
Arrival Airport
Navaid (VOR, NDB)
Fix

Horizontal Profiles

Position Reports

Time Latitude Longitude Heading Altitude Ground
Speed
31-Jul-15 12:06 37.628336 -122.383106 300 15ft 0kts
31-Jul-15 12:07 37.628336 -122.383106 300 15ft 0kts
31-Jul-15 12:08 37.628336 -122.383106 300 15ft 0kts
31-Jul-15 12:09 37.628336 -122.383106 300 15ft 0kts
31-Jul-15 12:10 37.628336 -122.383106 300 15ft 0kts
31-Jul-15 12:11 37.628199 -122.383001 93 15ft 3kts
31-Jul-15 12:12 37.627308 -122.382284 208 15ft 3kts
31-Jul-15 12:13 37.625993 -122.383171 129 15ft 4kts
31-Jul-15 12:14 37.624006 -122.378339 118 15ft 29kts
31-Jul-15 12:15 37.619697 -122.368160 119 15ft 34kts
31-Jul-15 12:16 37.615375 -122.357832 117 15ft 26kts
31-Jul-15 12:17 37.614278 -122.356873 206 15ft 0kts
31-Jul-15 12:18 37.613836 -122.357898 298 15ft 5kts
31-Jul-15 12:19 37.621466 -122.376403 298 276ft 123kts
31-Jul-15 12:20 37.638345 -122.420473 286 1847ft 149kts
31-Jul-15 12:21 37.658454 -122.468159 294 3855ft 159kts
31-Jul-15 12:22 37.653266 -122.517344 208 5618ft 175kts
31-Jul-15 12:23 37.606838 -122.542531 195 7355ft 182kts
31-Jul-15 12:24 37.555769 -122.553064 186 9091ft 182kts
31-Jul-15 12:25 37.505296 -122.559881 184 11098ft 183kts
31-Jul-15 12:26 37.455353 -122.568306 181 13181ft 178kts
31-Jul-15 12:27 37.405687 -122.573036 179 15124ft 179kts
31-Jul-15 12:28 37.355677 -122.577161 180 16992ft 181kts
31-Jul-15 12:29 37.306141 -122.576380 150 18793ft 180kts
31-Jul-15 12:30 37.271532 -122.531548 119 20466ft 190kts
31-Jul-15 12:31 37.246234 -122.470634 112 22345ft 202kts
31-Jul-15 12:32 37.230108 -122.401639 126 24321ft 209kts
31-Jul-15 12:33 37.181010 -122.352029 143 25110ft 255kts
31-Jul-15 12:34 37.119424 -122.295981 143 25096ft 284kts
31-Jul-15 12:35 37.054260 -122.236596 143 25096ft 292kts
31-Jul-15 12:36 36.988121 -122.176209 143 25097ft 294kts
31-Jul-15 12:37 36.972328 -122.161774 143 25098ft 294kts
31-Jul-15 12:40 36.749496 -121.957186 143 25105ft 296kts
31-Jul-15 12:41 36.693314 -121.905142 143 25108ft 297kts
31-Jul-15 12:42 36.658561 -121.818970 84 25113ft 303kts
31-Jul-15 12:43 36.662791 -121.714333 93 25101ft 302kts
31-Jul-15 12:44 36.643299 -121.613814 113 25093ft 300kts
31-Jul-15 12:45 36.597548 -121.529634 144 25094ft 296kts
31-Jul-15 12:46 36.525938 -121.479063 152 25090ft 296kts
31-Jul-15 12:47 36.457346 -121.421764 144 25090ft 297kts
31-Jul-15 12:48 36.399533 -121.370514 145 25082ft 297kts
31-Jul-15 12:49 36.331941 -121.311260 145 25077ft 296kts
31-Jul-15 12:50 36.264701 -121.252294 145 25073ft 296kts
31-Jul-15 12:51 36.197164 -121.193321 145 25062ft 296kts
31-Jul-15 12:52 36.129866 -121.134366 145 25064ft 295kts
31-Jul-15 12:53 36.062600 -121.075528 145 25061ft 295kts
31-Jul-15 12:54 35.995537 -121.017029 145 25059ft 295kts
31-Jul-15 12:55 35.928297 -120.958795 145 25058ft 294kts
31-Jul-15 12:56 35.872311 -120.910220 145 25058ft 294kts
31-Jul-15 12:57 35.805427 -120.852132 145 25059ft 294kts
31-Jul-15 12:58 35.739468 -120.794904 145 24708ft 277kts
31-Jul-15 12:59 35.669897 -120.734986 145 22478ft 279kts
31-Jul-15 13:00 35.617032 -120.689896 145 20810ft 274kts
31-Jul-15 13:01 35.554809 -120.637157 144 18807ft 268kts
31-Jul-15 13:02 35.493973 -120.585828 144 16806ft 262kts
31-Jul-15 13:03 35.434653 -120.535532 144 14815ft 257kts
31-Jul-15 13:04 35.376228 -120.485736 144 12812ft 253kts
31-Jul-15 13:05 35.318616 -120.436928 144 10807ft 250kts
31-Jul-15 13:06 35.260308 -120.388672 144 8803ft 254kts
31-Jul-15 13:07 35.200415 -120.342504 147 7062ft 246kts
31-Jul-15 13:08 35.141284 -120.317132 174 6917ft 219kts
31-Jul-15 13:09 35.081816 -120.313280 172 6969ft 211kts
31-Jul-15 13:10 35.023368 -120.306481 172 6907ft 210kts
31-Jul-15 13:11 34.965800 -120.301046 173 7006ft 205kts
31-Jul-15 13:12 34.908305 -120.294520 173 7005ft 209kts
31-Jul-15 13:13 34.850071 -120.290580 174 6968ft 210kts
31-Jul-15 13:14 34.791524 -120.285598 172 6964ft 208kts
31-Jul-15 13:15 34.733675 -120.279751 172 6936ft 208kts
31-Jul-15 13:16 34.676406 -120.273738 173 6994ft 205kts
31-Jul-15 13:17 34.619072 -120.268800 173 6976ft 208kts
31-Jul-15 13:18 34.561398 -120.264026 180 6964ft 207kts
31-Jul-15 13:19 34.535677 -120.309856 267 6703ft 157kts
31-Jul-15 13:20 34.536987 -120.356937 317 5352ft 143kts
31-Jul-15 13:21 34.564837 -120.386443 319 4747ft 130kts
31-Jul-15 13:22 34.590430 -120.417097 314 4113ft 129kts
31-Jul-15 13:23 34.616297 -120.446198 316 3432ft 120kts
31-Jul-15 13:24 34.640284 -120.472816 317 2643ft 113kts
31-Jul-15 13:25 34.663449 -120.499538 314 2042ft 118kts
31-Jul-15 13:26 34.687947 -120.527664 312 1291ft 124kts
31-Jul-15 13:27 34.711921 -120.555138 314 684ft 114kts
31-Jul-15 13:28 34.731503 -120.577638 316 371ft 56kts
31-Jul-15 13:29 34.738559 -120.585110 41 371ft 11kts
31-Jul-15 13:30 34.739124 -120.584341 46 371ft 0kts
31-Jul-15 13:31 34.739105 -120.580222 129 371ft 25kts
31-Jul-15 13:32 34.734444 -120.574847 135 371ft 22kts
31-Jul-15 13:33 34.733222 -120.573395 136 371ft 0kts
31-Jul-15 13:34 34.732738 -120.572861 138 371ft 4kts
31-Jul-15 13:35 34.732337 -120.571643 43 371ft 5kts
31-Jul-15 13:36 34.732232 -120.570365 139 371ft 4kts
31-Jul-15 13:37 34.732323 -120.569176 145 371ft 5kts
31-Jul-15 13:38 34.731904 -120.567829 46 371ft 5kts
31-Jul-15 13:39 34.732364 -120.566416 136 371ft 4kts
31-Jul-15 13:40 34.732068 -120.566076 136 371ft 0kts
31-Jul-15 13:41 34.732068 -120.566076 136 371ft 0kts
31-Jul-15 13:42 34.732068 -120.566076 136 373ft 0kts

Navigation Log

Ident Type
Flight plan parsing failed, navigation log unavailable